Manning, Oregon
Current Conditions -  °F | °C
As of 4:53 AM on Friday 19 Dec 2014 (Local Time) from KHIO Reporting Station
Light Rain Light Rain  
Wind Chill: 45°   Ceiling: 4100
Heat Index: 45°   Visibility: 10mi
Dew Point: 44°   Wind: 3mph
Humidity: 97%   Direction: 170°S
Pressure: 29.91"   Gusts: NA
Location:  45.66°N, 123.16°W
Report Text: KHIO 191253Z AUTO 17003KT 10SM -RA OVC041 07/07 A2991 RMK AO2 RAE05B27 SLP127 P0000 T00720067
Loading
Personal Weather Stations






























Interactive Weather Map New forecast layout! Learn more

10-Day Weather Forecast

Advertisements
Track Severe Weather on mobile